Flight Track Log - Related Links

Times and Time Zones

All times are in EDT time to prevent confusion due to time zone crossing. See the N6GD flight status page for this flight to view local times or setup timezone preferences in your user account.

Time Position Orientation Groundspeed Altitude Reporting Facility
EDT Latitude Longitude Course Direction KTS MPH feet Rate Location/Type
Fri 10:10:44 AM 25.9131 -80.2900 284° West 154 177 300  Level Miami Center
Fri 10:11:34 AM 25.9225 -80.3308 284° West 178 205 1,900 2,301 Climbing Miami Center
Fri 10:11:57 AM 25.9319 -80.3564 292° West 195 224 3,100 2,459 Climbing Miami Center
Fri 10:12:35 AM 25.9444 -80.3850 296° West 190 219 4,400 2,129 Climbing Miami Center
Fri 10:12:59 AM 25.9556 -80.4139 293° West 218 251 5,300 1,935 Climbing Miami Center
Fri 10:13:37 AM 25.9836 -80.4383 322° Northwest 245 282 6,400 2,400 Climbing Miami Center
Fri 10:13:54 AM 26.0111 -80.4297 16° North 284 327 7,500 2,710 Climbing Miami Center
Fri 10:14:39 AM 26.0317 -80.3825 64° Northeast 280 322 9,200 2,700 Climbing Miami Center
Fri 10:14:54 AM 26.0353 -80.3483 83° East 294 338 10,200 2,226 Climbing Miami Center
Fri 10:15:41 AM 26.0389 -80.2903 86° East 296 341 11,500 1,761 Climbing Miami Center
Fri 10:16:43 AM 26.0450 -80.1894 86° East 322 371 13,400 1,984 Climbing Miami Center
Fri 10:17:45 AM 26.0533 -80.0608 86° East 345 397 15,600 2,032 Climbing Miami Center
Fri 10:18:47 AM 26.0467 -79.9508 94° East 354 407 17,600 1,742 Climbing Miami Center
Fri 10:19:49 AM 26.0106 -79.8472 111° Southeast 358 412 19,200 1,403 Climbing Miami Center
Fri 10:20:51 AM 25.9614 -79.7447 118° Southeast 373 429 20,500 1,355 Climbing Miami Center
Fri 10:21:53 AM 25.9103 -79.6400 118° Southeast 383 441 22,000 1,355 Climbing Miami Center
Fri 10:22:55 AM 25.8597 -79.5314 117° Southeast 392 451 23,300 1,452 Climbing Miami Center
Fri 10:23:57 AM 25.7961 -79.4008 118° Southeast 400 460 25,000 1,452 Climbing Miami Center
Fri 10:24:59 AM 25.7428 -79.2897 118° Southeast 404 465 26,300 1,452 Climbing Miami Center
Fri 10:26:01 AM 25.6875 -79.1794 119° Southeast 407 468 28,000 1,790 Climbing Miami Center
Fri 10:27:03 AM 25.6364 -79.0722 118° Southeast 396 456 30,000 1,790 Climbing Miami Center
Fri 10:28:05 AM 25.5856 -78.9667 118° Southeast 391 450 31,700 1,680 Climbing Miami Center
Fri 10:29:08 AM 25.5292 -78.8497 118° Southeast 379 436 33,500 1,392 Climbing Miami Center
Fri 10:30:10 AM 25.4803 -78.7467 118° Southeast 379 436 34,600 1,161 Climbing Miami Center
Fri 10:31:12 AM 25.4208 -78.6339 120° Southeast 380 437 35,900 1,065 Climbing Miami Center
Fri 10:32:14 AM 25.3683 -78.5303 119° Southeast 387 445 36,800 532 Climbing Miami Center
Fri 10:33:16 AM 25.3147 -78.4250 119° Southeast 389 448 37,000 97 Climbing Miami Center
Fri 10:34:18 AM 25.2508 -78.3011 120° Southeast 419 482 37,000  Level Miami Center
Fri 10:35:20 AM 25.1911 -78.1808 119° Southeast 445 512 37,000  Level Miami Center
Fri 10:36:23 AM 25.1300 -78.0564 118° Southeast 461 531 37,000  Level Miami Center
Fri 10:37:25 AM 25.0608 -77.9189 119° Southeast 464 534 37,000  Level Miami Center
Fri 10:38:27 AM 24.9983 -77.7956 119° Southeast 463 533 37,000  Level Miami Center
Fri 10:39:29 AM 24.9328 -77.6633 119° Southeast 461 531 37,000  Level Miami Center
Fri 10:40:31 AM 24.8669 -77.5392 120° Southeast 465 535 37,000  Level Miami Center
Fri 10:41:34 AM 24.8069 -77.4161 118° Southeast 469 540 37,000  Level Miami Center
Fri 10:42:36 AM 24.7400 -77.2825 119° Southeast 459 528 37,000  Level Miami Center
Fri 10:43:38 AM 24.6786 -77.1594 119° Southeast 458 527 37,000  Level Miami Center
Fri 10:44:40 AM 24.6114 -77.0261 119° Southeast 457 526 37,000  Level Miami Center
Fri 10:45:43 AM 24.5497 -76.9050 119° Southeast 457 526 37,000  Level Miami Center
Fri 10:46:45 AM 24.4875 -76.7828 119° Southeast 459 528 37,000  Level Miami Center
Fri 10:47:47 AM 24.4206 -76.6478 119° Southeast 457 526 37,000  Level Miami Center
Fri 10:48:49 AM 24.3561 -76.5217 119° Southeast 457 526 37,000  Level Miami Center
Fri 10:49:52 AM 24.2925 -76.3992 120° Southeast 462 532 37,000  Level Miami Center
Fri 10:50:54 AM 24.2311 -76.2767 119° Southeast 460 529 37,000  Level Miami Center
Fri 10:51:56 AM 24.1667 -76.1547 120° Southeast 460 529 37,000  Level Miami Center
Fri 10:52:58 AM 24.1039 -76.0331 119° Southeast 459 528 37,000  Level Miami Center
Fri 10:54:01 AM 24.0406 -75.9114 120° Southeast 458 527 37,000  Level Miami Center
Fri 10:55:03 AM 23.9653 -75.7672 120° Southeast 455 524 37,000  Level Miami Center
Fri 10:56:05 AM 23.9028 -75.6456 119° Southeast 454 522 37,000  Level Miami Center
Fri 10:57:08 AM 23.8394 -75.5256 120° Southeast 453 521 37,000  Level Miami Center
Fri 10:58:10 AM 23.7758 -75.4061 120° Southeast 451 519 37,000  Level Miami Center
Fri 10:59:12 AM 23.7142 -75.2856 119° Southeast 451 519 37,000  Level Miami Center
Fri 11:00:14 AM 23.6500 -75.1672 121° Southeast 451 519 37,000  Level Miami Center
Fri 11:01:17 AM 23.5875 -75.0475 120° Southeast 451 519 37,000  Level Miami Center
Fri 11:02:19 AM 23.5122 -74.9072 120° Southeast 449 517 37,000  Level Miami Center
Fri 11:03:21 AM 23.4497 -74.7886 120° Southeast 449 517 37,000  Level Miami Center
Fri 11:04:23 AM 23.3850 -74.6711 121° Southeast 450 518 37,000  Level Miami Center
Fri 11:05:26 AM 23.3236 -74.5547 120° Southeast 447 514 37,000  Level Miami Center
Fri 11:06:28 AM 23.2611 -74.4386 120° Southeast 444 511 37,000  Level Miami Center
Fri 11:07:30 AM 23.2000 -74.3225 120° Southeast 443 510 37,000  Level Miami Center
Fri 11:08:33 AM 23.1264 -74.1842 120° Southeast 441 507 37,000  Level Miami Center
Fri 11:09:35 AM 23.0642 -74.0681 120° Southeast 441 507 37,000  Level Miami Center
Fri 11:10:37 AM 23.0006 -73.9533 121° Southeast 441 507 37,000  Level Miami Center
Fri 11:11:39 AM 22.9414 -73.8364 119° Southeast 441 507 37,000  Level Miami Center
Fri 11:12:42 AM 22.8797 -73.7214 120° Southeast 441 507 37,000  Level Miami Center
Fri 11:13:44 AM 22.8172 -73.6067 121° Southeast 441 507 37,000  Level Miami Center
Fri 11:14:46 AM 22.7419 -73.4689 121° Southeast 441 507 37,000  Level Miami Center
Fri 11:15:49 AM 22.6803 -73.3547 120° Southeast 441 507 37,000  Level Miami Center
Fri 11:16:51 AM 22.6172 -73.2406 121° Southeast 441 507 37,000  Level Miami Center
Fri 11:17:53 AM 22.5556 -73.1256 120° Southeast 441 507 37,000  Level Miami Center
Fri 11:18:55 AM 22.4911 -73.0108 121° Southeast 444 511 37,000  Level Miami Center
Fri 11:19:58 AM 22.4153 -72.8736 121° Southeast 444 511 37,000 -480 Level Miami Center
Fri 11:21:00 AM 22.3528 -72.7572 120° Southeast 444 511 36,000 -968 Descending Miami Center
Fri 11:22:02 AM 22.2881 -72.6417 121° Southeast 444 511 35,000 -484 Descending Miami Center
Fri 11:23:04 AM 22.2231 -72.5261 121° Southeast 445 512 35,000  Level Miami Center
Fri 11:24:07 AM 22.1606 -72.4119 121° Southeast 445 512 35,000  Level Miami Center
Fri 11:25:09 AM 22.0958 -72.2964 121° Southeast 445 512 35,000  Level Miami Center
Fri 11:26:11 AM 22.0186 -72.1572 121° Southeast 447 514 35,000  Level Miami Center
Fri 11:27:14 AM 21.9531 -72.0408 121° Southeast 449 517 35,000  Level Miami Center
Fri 11:28:16 AM 21.8869 -71.9228 121° Southeast 454 522 35,000  Level Miami Center
Fri 11:29:18 AM 21.8206 -71.8050 121° Southeast 456 525 35,000  Level Miami Center
Fri 11:30:20 AM 21.7544 -71.6878 121° Southeast 456 525 35,000  Level Miami Center
Fri 11:31:23 AM 21.6892 -71.5711 121° Southeast 456 525 35,000  Level Miami Center
Fri 11:32:25 AM 21.6097 -71.4319 122° Southeast 456 525 35,000  Level Miami Center
Fri 11:33:27 AM 21.5447 -71.3167 121° Southeast 456 525 35,000  Level Miami Center
Fri 11:34:30 AM 21.4719 -71.1883 121° Southeast 455 524 35,000  Level Miami Center
Fri 11:36:22 AM 21.3128 -71.0064 133° Southeast 434 499 35,000  Level Miami Center
Fri 11:37:24 AM 21.2200 -70.9150 137° Southeast 447 514 35,000  Level Miami Center
Fri 11:38:26 AM 21.1269 -70.8236 138° Southeast 448 516 35,000  Level Miami Center
Fri 11:39:28 AM 21.0336 -70.7317 137° Southeast 450 518 35,000  Level Miami Center
Fri 11:40:31 AM 20.9203 -70.6217 138° Southeast 451 519 35,000  Level Miami Center
Fri 11:41:33 AM 20.8264 -70.5292 137° Southeast 455 524 35,000  Level Miami Center
Fri 11:42:35 AM 20.7325 -70.4378 138° Southeast 455 524 35,000  Level Miami Center
Fri 11:43:38 AM 20.6389 -70.3458 137° Southeast 455 524 35,000  Level Miami Center
Fri 11:44:40 AM 20.5453 -70.2544 138° Southeast 455 524 35,000 -677 Level Miami Center
Fri 11:45:42 AM 20.4514 -70.1622 137° Southeast 455 524 33,600 -1,597 Descending Miami Center
Fri 11:46:44 AM 20.3394 -70.0544 138° Southeast 455 524 31,700 -1,680 Descending Miami Center
Fri 11:47:47 AM 20.2483 -69.9661 138° Southeast 451 519 30,100 -1,584 Descending Miami Center
Fri 11:48:49 AM 20.1567 -69.8753 137° Southeast 449 517 28,400 -1,452 Descending Miami Center
Fri 11:49:51 AM 20.0617 -69.7831 138° Southeast 453 521 27,100 -1,258 Descending Miami Center
Fri 11:51:00 AM 19.9652 -69.6985 137° Southeast  Level FlightAware Approximate
Fri 11:58:00 AM 19.3978 -69.1477 137° Southeast  Level FlightAware Approximate
Fri 11:59:00 AM 19.3178 -69.0676 137° Southeast  Level FlightAware Approximate
Fri 12:00:00 PM 19.2377 -68.9876 137° Southeast  Level FlightAware Approximate
Fri 12:01:00 PM 19.1576 -68.9076 137° Southeast  Level FlightAware Approximate
Fri 12:02:00 PM 19.0777 -68.8276 137° Southeast  Level FlightAware Approximate
Fri 12:03:00 PM 18.9960 -68.7497 140° Southeast  Level FlightAware Approximate
Fri 12:04:00 PM 18.9122 -68.6742 140° Southeast  Level FlightAware Approximate
Fri 12:05:00 PM 18.8301 -68.5968 137° Southeast  Level FlightAware Approximate
Fri 12:06:00 PM 18.7502 -68.5169 137° Southeast  Level FlightAware Approximate
Fri 12:07:00 PM 18.6687 -68.4390 145° Southeast  Level FlightAware Approximate
Fri 12:08:00 PM 18.5880 -68.3617 128° Southeast  Level FlightAware Approximate
Fri 12:09:00 PM 18.5674 -68.3634 128° Southeast  Level Estimated
Fri 12:10:00 PM 18.5674 -68.3634 128° Southeast  Level Estimated
Fri 12:11:00 PM 18.5674 -68.3634 128° Southeast  Level Estimated
Fri 12:12:00 PM 18.5674 -68.3634 128° Southeast  Level Estimated
Fri 12:13:00 PM 18.5674 -68.3634 128° Southeast  Level Estimated
Fri 12:14:00 PM 18.5674 -68.3634 128° Southeast  Level Estimated
Fri 12:15:00 PM 18.5674 -68.3634 128° Southeast  Level Estimated
Fri 12:16:00 PM 18.5674 -68.3634 128° Southeast  Level Estimated
Fri 12:17:00 PM 18.5674 -68.3634 128° Southeast  Level Estimated
Fri 12:18:00 PM 18.5674 -68.3634 128° Southeast  Level Estimated
Fri 12:19:00 PM 18.5674 -68.3634 128° Southeast  Level Estimated
Fri 12:20:00 PM 18.5674 -68.3634 128° Southeast  Level Estimated

Login

Don't have an account? Register now (free) for customized features, flight alerts, and more!